sensor_id;sensor_type;location;lat;lon;timestamp;pressure;altitude;pressure_sealevel;temperature;humidity
78210;BME280;67485;48.816;9.930;2023-08-01T00:00:31;95952.19;;;17.79;81.77
78210;BME280;67485;48.816;9.930;2023-08-01T00:02:57;95941.81;;;17.76;81.29
78210;BME280;67485;48.816;9.930;2023-08-01T00:05:23;95940.34;;;17.72;81.70
78210;BME280;67485;48.816;9.930;2023-08-01T00:07:49;95945.72;;;17.70;81.96
78210;BME280;67485;48.816;9.930;2023-08-01T00:10:15;95950.00;;;17.73;82.12
78210;BME280;67485;48.816;9.930;2023-08-01T00:12:42;95939.06;;;17.77;82.38
78210;BME280;67485;48.816;9.930;2023-08-01T00:15:08;95933.75;;;17.77;82.42
78210;BME280;67485;48.816;9.930;2023-08-01T00:17:34;95929.09;;;17.81;82.50
78210;BME280;67485;48.816;9.930;2023-08-01T00:20:01;95922.09;;;17.80;82.83
78210;BME280;67485;48.816;9.930;2023-08-01T00:22:27;95925.28;;;17.85;82.80
78210;BME280;67485;48.816;9.930;2023-08-01T00:24:52;95930.56;;;17.85;83.33
78210;BME280;67485;48.816;9.930;2023-08-01T00:27:18;95924.44;;;17.85;83.92
78210;BME280;67485;48.816;9.930;2023-08-01T00:29:44;95918.06;;;17.87;83.56
78210;BME280;67485;48.816;9.930;2023-08-01T00:32:10;95914.66;;;17.85;84.05
78210;BME280;67485;48.816;9.930;2023-08-01T00:34:36;95910.53;;;17.81;85.21
78210;BME280;67485;48.816;9.930;2023-08-01T00:37:01;95906.00;;;17.83;85.31
78210;BME280;67485;48.816;9.930;2023-08-01T00:39:27;95906.00;;;17.83;85.44
78210;BME280;67485;48.816;9.930;2023-08-01T00:41:53;95897.53;;;17.78;85.92
78210;BME280;67485;48.816;9.930;2023-08-01T00:44:18;95895.31;;;17.72;85.74
78210;BME280;67485;48.816;9.930;2023-08-01T00:46:44;95900.91;;;17.67;85.91
78210;BME280;67485;48.816;9.930;2023-08-01T00:49:10;95893.63;;;17.71;85.72
78210;BME280;67485;48.816;9.930;2023-08-01T00:51:36;95890.22;;;17.69;86.02
78210;BME280;67485;48.816;9.930;2023-08-01T00:54:02;95886.72;;;17.68;86.77
78210;BME280;67485;48.816;9.930;2023-08-01T00:56:27;95892.75;;;17.70;87.12
78210;BME280;67485;48.816;9.930;2023-08-01T00:58:53;95888.09;;;17.74;87.10
78210;BME280;67485;48.816;9.930;2023-08-01T01:01:19;95875.91;;;17.71;86.71
78210;BME280;67485;48.816;9.930;2023-08-01T01:03:45;95868.91;;;17.70;86.46
78210;BME280;67485;48.816;9.930;2023-08-01T01:06:14;95858.66;;;17.65;86.67
78210;BME280;67485;48.816;9.930;2023-08-01T01:08:43;95854.31;;;17.64;87.49
78210;BME280;67485;48.816;9.930;2023-08-01T01:11:09;95838.16;;;17.67;88.41
78210;BME280;67485;48.816;9.930;2023-08-01T01:13:34;95835.63;;;17.66;87.97
78210;BME280;67485;48.816;9.930;2023-08-01T01:16:00;95829.38;;;17.67;88.23
78210;BME280;67485;48.816;9.930;2023-08-01T01:18:26;95828.00;;;17.61;88.43
78210;BME280;67485;48.816;9.930;2023-08-01T01:20:51;95819.53;;;17.56;90.01
78210;BME280;67485;48.816;9.930;2023-08-01T01:23:18;95809.91;;;17.55;89.45
78210;BME280;67485;48.816;9.930;2023-08-01T01:25:45;95811.13;;;17.25;93.44
78210;BME280;67485;48.816;9.930;2023-08-01T01:28:12;95799.69;;;17.12;95.18
78210;BME280;67485;48.816;9.930;2023-08-01T01:30:38;95801.38;;;17.00;96.25
78210;BME280;67485;48.816;9.930;2023-08-01T01:33:04;95789.13;;;16.99;96.49
78210;BME280;67485;48.816;9.930;2023-08-01T01:35:33;95793.97;;;16.92;96.82
78210;BME280;67485;48.816;9.930;2023-08-01T01:37:59;95804.28;;;16.69;100.00
78210;BME280;67485;48.816;9.930;2023-08-01T01:40:32;95797.81;;;16.61;100.00
78210;BME280;67485;48.816;9.930;2023-08-01T01:42:59;95802.78;;;16.65;100.00
78210;BME280;67485;48.816;9.930;2023-08-01T01:45:25;95783.97;;;16.83;99.78
78210;BME280;67485;48.816;9.930;2023-08-01T01:47:51;95788.47;;;16.95;98.07
78210;BME280;67485;48.816;9.930;2023-08-01T01:50:17;95803.19;;;16.99;97.31
78210;BME280;67485;48.816;9.930;2023-08-01T01:52:44;95809.63;;;17.08;95.79
78210;BME280;67485;48.816;9.930;2023-08-01T01:55:10;95795.75;;;17.05;96.63
78210;BME280;67485;48.816;9.930;2023-08-01T01:57:36;95802.44;;;16.97;97.26
78210;BME280;67485;48.816;9.930;2023-08-01T02:00:04;95816.75;;;17.08;95.53
78210;BME280;67485;48.816;9.930;2023-08-01T02:02:38;95806.69;;;17.13;95.64
78210;BME280;67485;48.816;9.930;2023-08-01T02:05:04;95806.47;;;17.03;93.62
78210;BME280;67485;48.816;9.930;2023-08-01T02:07:30;95811.53;;;17.06;93.22
78210;BME280;67485;48.816;9.930;2023-08-01T02:09:56;95799.88;;;17.09;92.95
78210;BME280;67485;48.816;9.930;2023-08-01T02:12:21;95760.09;;;16.97;92.68
78210;BME280;67485;48.816;9.930;2023-08-01T02:14:47;95746.31;;;16.79;93.83
78210;BME280;67485;48.816;9.930;2023-08-01T02:17:13;95743.97;;;16.75;93.69
78210;BME280;67485;48.816;9.930;2023-08-01T02:19:38;95749.06;;;16.78;94.32
78210;BME280;67485;48.816;9.930;2023-08-01T02:22:04;95749.28;;;16.88;94.01
78210;BME280;67485;48.816;9.930;2023-08-01T02:24:30;95745.28;;;16.95;94.79
78210;BME280;67485;48.816;9.930;2023-08-01T02:26:56;95727.19;;;17.01;95.43
78210;BME280;67485;48.816;9.930;2023-08-01T02:29:21;95726.00;;;17.06;94.09
78210;BME280;67485;48.816;9.930;2023-08-01T02:31:47;95716.88;;;17.10;92.92
78210;BME280;67485;48.816;9.930;2023-08-01T02:34:13;95716.69;;;17.13;92.95
78210;BME280;67485;48.816;9.930;2023-08-01T02:36:38;95708.00;;;17.11;92.63
78210;BME280;67485;48.816;9.930;2023-08-01T02:39:06;95714.75;;;17.15;92.30
78210;BME280;67485;48.816;9.930;2023-08-01T02:41:32;95703.97;;;17.18;93.37
78210;BME280;67485;48.816;9.930;2023-08-01T02:43:57;95699.50;;;17.18;92.50
78210;BME280;67485;48.816;9.930;2023-08-01T02:46:23;95696.53;;;17.23;91.77
78210;BME280;67485;48.816;9.930;2023-08-01T02:48:49;95696.53;;;17.23;91.81
78210;BME280;67485;48.816;9.930;2023-08-01T02:51:14;95703.31;;;17.27;91.55
78210;BME280;67485;48.816;9.930;2023-08-01T02:53:40;95704.25;;;17.26;92.02
78210;BME280;67485;48.816;9.930;2023-08-01T02:56:07;95733.00;;;17.07;94.89
78210;BME280;67485;48.816;9.930;2023-08-01T02:58:35;95721.38;;;16.96;96.04
78210;BME280;67485;48.816;9.930;2023-08-01T03:01:05;95712.78;;;17.06;95.67
78210;BME280;67485;48.816;9.930;2023-08-01T03:03:32;95718.59;;;17.11;95.55
78210;BME280;67485;48.816;9.930;2023-08-01T03:06:00;95712.03;;;17.16;94.49
78210;BME280;67485;48.816;9.930;2023-08-01T03:08:26;95705.66;;;17.19;94.49
78210;BME280;67485;48.816;9.930;2023-08-01T03:10:55;95716.13;;;17.21;94.58
78210;BME280;67485;48.816;9.930;2023-08-01T03:13:22;95727.03;;;17.16;95.66
78210;BME280;67485;48.816;9.930;2023-08-01T03:15:47;95722.94;;;17.12;96.56
78210;BME280;67485;48.816;9.930;2023-08-01T03:18:13;95721.16;;;16.99;97.48
78210;BME280;67485;48.816;9.930;2023-08-01T03:20:39;95708.72;;;16.87;97.93
78210;BME280;67485;48.816;9.930;2023-08-01T03:23:05;95706.00;;;16.76;98.87
78210;BME280;67485;48.816;9.930;2023-08-01T03:25:31;95691.06;;;16.75;97.12
78210;BME280;67485;48.816;9.930;2023-08-01T03:27:56;95699.00;;;16.75;95.55
78210;BME280;67485;48.816;9.930;2023-08-01T03:30:22;95692.75;;;16.76;94.24
78210;BME280;67485;48.816;9.930;2023-08-01T03:32:48;95680.47;;;16.75;94.63
78210;BME280;67485;48.816;9.930;2023-08-01T03:35:14;95667.16;;;16.76;94.78
78210;BME280;67485;48.816;9.930;2023-08-01T03:37:40;95665.38;;;16.77;94.26
78210;BME280;67485;48.816;9.930;2023-08-01T03:40:06;95672.88;;;16.83;93.66
78210;BME280;67485;48.816;9.930;2023-08-01T03:42:38;95668.84;;;16.90;92.74
78210;BME280;67485;48.816;9.930;2023-08-01T03:45:06;95659.97;;;16.91;92.07
78210;BME280;67485;48.816;9.930;2023-08-01T03:47:32;95657.88;;;16.96;91.71
78210;BME280;67485;48.816;9.930;2023-08-01T03:49:58;95661.75;;;17.04;91.24
78210;BME280;67485;48.816;9.930;2023-08-01T03:52:24;95664.38;;;17.04;90.72
78210;BME280;67485;48.816;9.930;2023-08-01T03:54:54;95669.47;;;17.07;91.35
78210;BME280;67485;48.816;9.930;2023-08-01T03:57:19;95660.34;;;17.11;91.96
78210;BME280;67485;48.816;9.930;2023-08-01T03:59:46;95666.03;;;17.17;91.89
78210;BME280;67485;48.816;9.930;2023-08-01T04:02:12;95670.41;;;17.18;92.43
78210;BME280;67485;48.816;9.930;2023-08-01T04:04:37;95661.00;;;17.14;92.62
78210;BME280;67485;48.816;9.930;2023-08-01T04:07:03;95665.44;;;17.14;92.58
78210;BME280;67485;48.816;9.930;2023-08-01T04:09:30;95665.44;;;17.14;91.56
78210;BME280;67485;48.816;9.930;2023-08-01T04:11:56;95661.81;;;17.15;91.92
78210;BME280;67485;48.816;9.930;2023-08-01T04:14:22;95668.31;;;17.11;91.29
78210;BME280;67485;48.816;9.930;2023-08-01T04:16:48;95672.84;;;17.09;91.62
78210;BME280;67485;48.816;9.930;2023-08-01T04:19:13;95682.38;;;17.11;91.75
78210;BME280;67485;48.816;9.930;2023-08-01T04:21:39;95674.09;;;17.16;92.12
78210;BME280;67485;48.816;9.930;2023-08-01T04:24:05;95673.91;;;17.19;91.64
78210;BME280;67485;48.816;9.930;2023-08-01T04:26:31;95667.97;;;17.15;91.82
78210;BME280;67485;48.816;9.930;2023-08-01T04:28:56;95672.31;;;17.04;91.20
78210;BME280;67485;48.816;9.930;2023-08-01T04:31:22;95665.06;;;16.94;91.64
78210;BME280;67485;48.816;9.930;2023-08-01T04:33:47;95664.09;;;16.95;91.90
78210;BME280;67485;48.816;9.930;2023-08-01T04:36:13;95649.19;;;16.94;91.59
78210;BME280;67485;48.816;9.930;2023-08-01T04:38:39;95642.94;;;16.95;91.68
78210;BME280;67485;48.816;9.930;2023-08-01T04:41:04;95633.72;;;16.88;91.48
78210;BME280;67485;48.816;9.930;2023-08-01T04:43:30;95633.72;;;16.88;91.69
78210;BME280;67485;48.816;9.930;2023-08-01T04:45:55;95615.94;;;16.90;92.19
78210;BME280;67485;48.816;9.930;2023-08-01T04:48:21;95612.13;;;16.94;91.14
78210;BME280;67485;48.816;9.930;2023-08-01T04:50:47;95579.53;;;16.94;91.31
78210;BME280;67485;48.816;9.930;2023-08-01T04:53:12;95548.94;;;16.90;90.86
78210;BME280;67485;48.816;9.930;2023-08-01T04:55:38;95537.09;;;16.95;90.47
78210;BME280;67485;48.816;9.930;2023-08-01T04:58:03;95547.25;;;17.01;88.81
78210;BME280;67485;48.816;9.930;2023-08-01T05:00:29;95544.16;;;17.08;87.76
78210;BME280;67485;48.816;9.930;2023-08-01T05:02:55;95542.00;;;17.13;87.31
78210;BME280;67485;48.816;9.930;2023-08-01T05:05:21;95541.56;;;17.19;86.12
78210;BME280;67485;48.816;9.930;2023-08-01T05:07:46;95536.03;;;17.22;86.29
78210;BME280;67485;48.816;9.930;2023-08-01T05:10:12;95517.16;;;17.27;85.71
78210;BME280;67485;48.816;9.930;2023-08-01T05:12:37;95514.63;;;17.25;85.67
78210;BME280;67485;48.816;9.930;2023-08-01T05:15:03;95504.53;;;17.30;85.55
78210;BME280;67485;48.816;9.930;2023-08-01T05:17:29;95502.50;;;17.34;85.03
78210;BME280;67485;48.816;9.930;2023-08-01T05:19:55;95513.47;;;17.41;84.99
78210;BME280;67485;48.816;9.930;2023-08-01T05:22:21;95526.59;;;17.42;85.47
78210;BME280;67485;48.816;9.930;2023-08-01T05:24:46;95548.66;;;17.43;85.54
78210;BME280;67485;48.816;9.930;2023-08-01T05:27:12;95561.03;;;17.42;88.04
78210;BME280;67485;48.816;9.930;2023-08-01T05:29:37;95545.88;;;17.44;87.88
78210;BME280;67485;48.816;9.930;2023-08-01T05:32:03;95554.69;;;17.56;87.36
78210;BME280;67485;48.816;9.930;2023-08-01T05:34:29;95566.47;;;17.52;87.87
78210;BME280;67485;48.816;9.930;2023-08-01T05:36:55;95565.91;;;17.60;87.59
78210;BME280;67485;48.816;9.930;2023-08-01T05:39:20;95580.72;;;17.62;87.14
78210;BME280;67485;48.816;9.930;2023-08-01T05:41:46;95577.72;;;17.67;87.00
78210;BME280;67485;48.816;9.930;2023-08-01T05:44:12;95586.75;;;17.64;88.65
78210;BME280;67485;48.816;9.930;2023-08-01T05:46:37;95589.03;;;17.58;88.40
78210;BME280;67485;48.816;9.930;2023-08-01T05:49:03;95589.88;;;17.58;88.15
78210;BME280;67485;48.816;9.930;2023-08-01T05:51:29;95592.72;;;17.55;88.86
78210;BME280;67485;48.816;9.930;2023-08-01T05:53:54;95602.81;;;17.50;88.81
78210;BME280;67485;48.816;9.930;2023-08-01T05:56:20;95611.25;;;17.55;89.07
78210;BME280;67485;48.816;9.930;2023-08-01T05:58:45;95598.31;;;17.63;88.07
78210;BME280;67485;48.816;9.930;2023-08-01T06:01:11;95602.94;;;17.73;87.06
78210;BME280;67485;48.816;9.930;2023-08-01T06:03:39;95598.13;;;17.78;86.69
78210;BME280;67485;48.816;9.930;2023-08-01T06:06:05;95593.78;;;17.77;86.24
78210;BME280;67485;48.816;9.930;2023-08-01T06:08:31;95589.78;;;17.71;86.52
78210;BME280;67485;48.816;9.930;2023-08-01T06:10:56;95595.69;;;17.75;86.34
78210;BME280;67485;48.816;9.930;2023-08-01T06:13:22;95598.63;;;17.83;86.03
78210;BME280;67485;48.816;9.930;2023-08-01T06:15:48;95594.44;;;17.92;85.91
78210;BME280;67485;48.816;9.930;2023-08-01T06:18:13;95588.09;;;17.94;85.60
78210;BME280;67485;48.816;9.930;2023-08-01T06:20:39;95590.50;;;17.97;85.14
78210;BME280;67485;48.816;9.930;2023-08-01T06:23:05;95598.44;;;17.97;85.66
78210;BME280;67485;48.816;9.930;2023-08-01T06:25:31;95596.66;;;17.98;86.43
78210;BME280;67485;48.816;9.930;2023-08-01T06:27:56;95582.97;;;17.91;86.78
78210;BME280;67485;48.816;9.930;2023-08-01T06:30:22;95583.97;;;17.90;86.78
78210;BME280;67485;48.816;9.930;2023-08-01T06:32:48;95584.19;;;17.87;86.33
78210;BME280;67485;48.816;9.930;2023-08-01T06:35:13;95583.91;;;17.79;86.77
78210;BME280;67485;48.816;9.930;2023-08-01T06:37:39;95571.63;;;17.78;87.08
78210;BME280;67485;48.816;9.930;2023-08-01T06:40:05;95567.06;;;17.80;86.57
78210;BME280;67485;48.816;9.930;2023-08-01T06:42:31;95565.25;;;17.80;86.19
78210;BME280;67485;48.816;9.930;2023-08-01T06:44:57;95565.34;;;17.79;86.29
78210;BME280;67485;48.816;9.930;2023-08-01T06:47:22;95574.50;;;17.75;86.22
78210;BME280;67485;48.816;9.930;2023-08-01T06:49:48;95575.59;;;17.72;86.85
78210;BME280;67485;48.816;9.930;2023-08-01T06:52:14;95590.66;;;17.72;86.46
78210;BME280;67485;48.816;9.930;2023-08-01T06:54:39;95601.00;;;17.75;87.04
78210;BME280;67485;48.816;9.930;2023-08-01T06:57:06;95597.63;;;17.73;88.19
78210;BME280;67485;48.816;9.930;2023-08-01T06:59:32;95626.03;;;17.71;89.31
78210;BME280;67485;48.816;9.930;2023-08-01T07:01:57;95645.97;;;17.63;89.63
78210;BME280;67485;48.816;9.930;2023-08-01T07:04:23;95654.38;;;17.57;89.08
78210;BME280;67485;48.816;9.930;2023-08-01T07:06:49;95657.09;;;17.44;87.70
78210;BME280;67485;48.816;9.930;2023-08-01T07:09:14;95642.28;;;17.42;88.32
78210;BME280;67485;48.816;9.930;2023-08-01T07:11:40;95643.59;;;17.23;90.02
78210;BME280;67485;48.816;9.930;2023-08-01T07:14:06;95638.88;;;17.15;89.59
78210;BME280;67485;48.816;9.930;2023-08-01T07:16:31;95651.22;;;17.15;89.54
78210;BME280;67485;48.816;9.930;2023-08-01T07:19:00;95649.56;;;17.14;90.69
78210;BME280;67485;48.816;9.930;2023-08-01T07:21:26;95659.84;;;17.06;90.66
78210;BME280;67485;48.816;9.930;2023-08-01T07:23:51;95677.84;;;17.00;90.21
78210;BME280;67485;48.816;9.930;2023-08-01T07:26:17;95690.13;;;17.01;90.48
78210;BME280;67485;48.816;9.930;2023-08-01T07:28:43;95669.69;;;16.78;91.74
78210;BME280;67485;48.816;9.930;2023-08-01T07:31:08;95658.38;;;16.76;92.54
78210;BME280;67485;48.816;9.930;2023-08-01T07:33:36;95649.06;;;16.83;92.83
78210;BME280;67485;48.816;9.930;2023-08-01T07:36:02;95636.47;;;16.86;92.70
78210;BME280;67485;48.816;9.930;2023-08-01T07:38:28;95639.66;;;16.92;92.97
78210;BME280;67485;48.816;9.930;2023-08-01T07:40:54;95653.09;;;17.01;93.18
78210;BME280;67485;48.816;9.930;2023-08-01T07:43:20;95643.44;;;16.88;91.84
78210;BME280;67485;48.816;9.930;2023-08-01T07:45:46;95638.69;;;16.80;91.74
78210;BME280;67485;48.816;9.930;2023-08-01T07:48:12;95631.59;;;16.80;92.16
78210;BME280;67485;48.816;9.930;2023-08-01T07:50:38;95640.25;;;16.82;92.75
78210;BME280;67485;48.816;9.930;2023-08-01T07:53:03;95630.22;;;16.88;92.57
78210;BME280;67485;48.816;9.930;2023-08-01T07:55:33;95643.22;;;16.91;93.54
78210;BME280;67485;48.816;9.930;2023-08-01T07:58:00;95642.38;;;16.90;93.76
78210;BME280;67485;48.816;9.930;2023-08-01T08:00:25;95668.84;;;16.77;93.52
78210;BME280;67485;48.816;9.930;2023-08-01T08:02:52;95690.63;;;16.81;93.82
78210;BME280;67485;48.816;9.930;2023-08-01T08:05:18;95699.09;;;16.86;94.34
78210;BME280;67485;48.816;9.930;2023-08-01T08:07:44;95685.22;;;16.82;94.08
78210;BME280;67485;48.816;9.930;2023-08-01T08:10:09;95676.47;;;16.82;94.09
78210;BME280;67485;48.816;9.930;2023-08-01T08:12:35;95668.00;;;16.77;93.68
78210;BME280;67485;48.816;9.930;2023-08-01T08:15:01;95662.72;;;16.77;94.24
78210;BME280;67485;48.816;9.930;2023-08-01T08:17:26;95656.16;;;16.69;94.26
78210;BME280;67485;48.816;9.930;2023-08-01T08:19:52;95654.06;;;16.62;94.65
78210;BME280;67485;48.816;9.930;2023-08-01T08:22:18;95648.13;;;16.58;95.41
78210;BME280;67485;48.816;9.930;2023-08-01T08:24:43;95648.34;;;16.55;95.92
78210;BME280;67485;48.816;9.930;2023-08-01T08:27:09;95663.56;;;16.51;96.85
78210;BME280;67485;48.816;9.930;2023-08-01T08:29:35;95669.94;;;16.49;96.86
78210;BME280;67485;48.816;9.930;2023-08-01T08:32:00;95668.22;;;16.48;96.87
78210;BME280;67485;48.816;9.930;2023-08-01T08:34:26;95669.19;;;16.47;96.74
78210;BME280;67485;48.816;9.930;2023-08-01T08:36:52;95664.72;;;16.47;96.90
78210;BME280;67485;48.816;9.930;2023-08-01T08:39:18;95661.25;;;16.47;96.33
78210;BME280;67485;48.816;9.930;2023-08-01T08:41:48;95647.91;;;16.48;95.95
78210;BME280;67485;48.816;9.930;2023-08-01T08:44:19;95639.66;;;16.53;95.85
78210;BME280;67485;48.816;9.930;2023-08-01T08:46:52;95640.50;;;16.66;95.79
78210;BME280;67485;48.816;9.930;2023-08-01T08:49:19;95645.16;;;16.76;95.42
78210;BME280;67485;48.816;9.930;2023-08-01T08:51:47;95643.25;;;16.78;95.12
78210;BME280;67485;48.816;9.930;2023-08-01T08:54:15;95647.69;;;16.77;94.79
78210;BME280;67485;48.816;9.930;2023-08-01T08:56:41;95652.56;;;16.70;94.98
78210;BME280;67485;48.816;9.930;2023-08-01T08:59:10;95635.84;;;16.57;95.68
78210;BME280;67485;48.816;9.930;2023-08-01T09:01:37;95640.09;;;16.47;96.70
78210;BME280;67485;48.816;9.930;2023-08-01T09:04:03;95648.34;;;16.55;97.03
78210;BME280;67485;48.816;9.930;2023-08-01T09:06:34;95646.22;;;16.60;96.44
78210;BME280;67485;48.816;9.930;2023-08-01T09:09:13;95648.75;;;16.75;96.69
78210;BME280;67485;48.816;9.930;2023-08-01T09:11:59;95660.06;;;16.77;96.14
78210;BME280;67485;48.816;9.930;2023-08-01T09:14:24;95652.09;;;16.90;95.95
78210;BME280;67485;48.816;9.930;2023-08-01T09:16:50;95649.38;;;17.04;95.38
78210;BME280;67485;48.816;9.930;2023-08-01T09:19:19;95651.59;;;16.97;95.40
78210;BME280;67485;48.816;9.930;2023-08-01T09:21:45;95648.31;;;16.81;94.92
78210;BME280;67485;48.816;9.930;2023-08-01T09:24:16;95634.03;;;16.83;94.69
78210;BME280;67485;48.816;9.930;2023-08-01T09:26:43;95632.34;;;16.95;95.11
78210;BME280;67485;48.816;9.930;2023-08-01T09:29:09;95629.59;;;16.97;95.20
78210;BME280;67485;48.816;9.930;2023-08-01T09:31:40;95630.72;;;17.06;95.40
78210;BME280;67485;48.816;9.930;2023-08-01T09:34:17;95631.38;;;17.09;95.48
78210;BME280;67485;48.816;9.930;2023-08-01T09:36:43;95623.53;;;17.08;94.73
78210;BME280;67485;48.816;9.930;2023-08-01T09:39:18;95629.84;;;17.18;94.84
78210;BME280;67485;48.816;9.930;2023-08-01T09:41:45;95625.28;;;17.20;94.53
78210;BME280;67485;48.816;9.930;2023-08-01T09:44:11;95626.97;;;17.21;94.03
78210;BME280;67485;48.816;9.930;2023-08-01T09:46:37;95635.16;;;17.18;93.78
78210;BME280;67485;48.816;9.930;2023-08-01T09:49:08;95627.31;;;17.16;94.60
78210;BME280;67485;48.816;9.930;2023-08-01T09:51:46;95616.91;;;17.26;94.44
78210;BME280;67485;48.816;9.930;2023-08-01T09:54:12;95634.09;;;17.21;94.05
78210;BME280;67485;48.816;9.930;2023-08-01T09:56:39;95630.06;;;17.15;93.85
78210;BME280;67485;48.816;9.930;2023-08-01T09:59:05;95638.97;;;17.14;94.32
78210;BME280;67485;48.816;9.930;2023-08-01T10:01:31;95645.66;;;17.07;94.74
78210;BME280;67485;48.816;9.930;2023-08-01T10:03:58;95644.41;;;16.99;95.56
78210;BME280;67485;48.816;9.930;2023-08-01T10:06:28;95654.03;;;17.00;96.07
78210;BME280;67485;48.816;9.930;2023-08-01T10:08:58;95658.66;;;17.10;95.99
78210;BME280;67485;48.816;9.930;2023-08-01T10:11:23;95647.50;;;17.30;96.67
78210;BME280;67485;48.816;9.930;2023-08-01T10:13:49;95656.03;;;17.47;95.90
78210;BME280;67485;48.816;9.930;2023-08-01T10:16:15;95659.53;;;17.72;95.36
78210;BME280;67485;48.816;9.930;2023-08-01T10:18:42;95653.31;;;17.84;93.72
78210;BME280;67485;48.816;9.930;2023-08-01T10:21:12;95654.88;;;17.87;93.45
78210;BME280;67485;48.816;9.930;2023-08-01T10:23:39;95650.44;;;17.87;93.60
78210;BME280;67485;48.816;9.930;2023-08-01T10:26:07;95654.22;;;17.72;93.09
78210;BME280;67485;48.816;9.930;2023-08-01T10:28:41;95656.19;;;17.57;94.57
78210;BME280;67485;48.816;9.930;2023-08-01T10:31:16;95648.34;;;17.55;95.27
78210;BME280;67485;48.816;9.930;2023-08-01T10:33:46;95644.56;;;17.46;95.46
78210;BME280;67485;48.816;9.930;2023-08-01T10:36:19;95649.25;;;17.43;95.81
78210;BME280;67485;48.816;9.930;2023-08-01T10:39:00;95634.44;;;17.40;96.46
78210;BME280;67485;48.816;9.930;2023-08-01T10:41:34;95649.97;;;17.45;96.40
78210;BME280;67485;48.816;9.930;2023-08-01T10:44:12;95652.19;;;17.51;96.38
78210;BME280;67485;48.816;9.930;2023-08-01T10:46:49;95643.41;;;17.50;95.05
78210;BME280;67485;48.816;9.930;2023-08-01T10:49:15;95650.47;;;17.50;95.41
78210;BME280;67485;48.816;9.930;2023-08-01T10:51:42;95652.69;;;17.56;95.74
78210;BME280;67485;48.816;9.930;2023-08-01T10:54:18;95654.50;;;17.56;96.30
78210;BME280;67485;48.816;9.930;2023-08-01T10:56:46;95652.22;;;17.62;95.52
78210;BME280;67485;48.816;9.930;2023-08-01T10:59:14;95648.69;;;17.75;95.13
78210;BME280;67485;48.816;9.930;2023-08-01T11:01:53;95634.31;;;17.90;94.44
78210;BME280;67485;48.816;9.930;2023-08-01T11:04:23;95638.44;;;17.94;93.79
78210;BME280;67485;48.816;9.930;2023-08-01T11:06:51;95634.59;;;17.98;93.64
78210;BME280;67485;48.816;9.930;2023-08-01T11:09:21;95638.19;;;17.97;92.67
78210;BME280;67485;48.816;9.930;2023-08-01T11:11:54;95642.81;;;18.07;92.43
78210;BME280;67485;48.816;9.930;2023-08-01T11:14:25;95637.19;;;18.23;93.36
78210;BME280;67485;48.816;9.930;2023-08-01T11:16:53;95644.31;;;18.34;91.89
78210;BME280;67485;48.816;9.930;2023-08-01T11:19:29;95643.75;;;18.64;90.54
78210;BME280;67485;48.816;9.930;2023-08-01T11:21:56;95647.53;;;19.18;87.62
78210;BME280;67485;48.816;9.930;2023-08-01T11:24:24;95647.19;;;19.55;86.08
78210;BME280;67485;48.816;9.930;2023-08-01T11:26:51;95636.25;;;19.81;84.92
78210;BME280;67485;48.816;9.930;2023-08-01T11:29:19;95635.19;;;19.84;83.60
78210;BME280;67485;48.816;9.930;2023-08-01T11:31:53;95624.00;;;20.22;81.64
78210;BME280;67485;48.816;9.930;2023-08-01T11:34:19;95624.00;;;20.22;80.95
78210;BME280;67485;48.816;9.930;2023-08-01T11:36:44;95642.69;;;20.11;81.33
78210;BME280;67485;48.816;9.930;2023-08-01T11:39:11;95657.09;;;19.65;84.26
78210;BME280;67485;48.816;9.930;2023-08-01T11:41:38;95659.72;;;19.21;86.34
78210;BME280;67485;48.816;9.930;2023-08-01T11:44:04;95653.41;;;18.65;88.04
78210;BME280;67485;48.816;9.930;2023-08-01T11:46:31;95652.25;;;18.22;90.36
78210;BME280;67485;48.816;9.930;2023-08-01T11:48:58;95663.91;;;17.84;90.84
78210;BME280;67485;48.816;9.930;2023-08-01T11:51:25;95662.06;;;17.73;93.26
78210;BME280;67485;48.816;9.930;2023-08-01T11:54:03;95672.97;;;17.44;95.02
78210;BME280;67485;48.816;9.930;2023-08-01T11:56:30;95681.41;;;17.25;96.68
78210;BME280;67485;48.816;9.930;2023-08-01T11:58:56;95696.38;;;17.75;97.31
78210;BME280;67485;48.816;9.930;2023-08-01T12:01:22;95681.91;;;18.27;94.78
78210;BME280;67485;48.816;9.930;2023-08-01T12:03:49;95691.44;;;18.30;93.06
78210;BME280;67485;48.816;9.930;2023-08-01T12:06:16;95694.19;;;18.17;93.97
78210;BME280;67485;48.816;9.930;2023-08-01T12:08:42;95693.44;;;18.15;94.52
78210;BME280;67485;48.816;9.930;2023-08-01T12:13:45;95694.44;;;20.07;89.15
78210;BME280;67485;48.816;9.930;2023-08-01T12:16:11;95693.06;;;20.87;84.88
78210;BME280;67485;48.816;9.930;2023-08-01T12:18:38;95688.97;;;20.83;81.40
78210;BME280;67485;48.816;9.930;2023-08-01T12:21:04;95694.56;;;20.27;81.01
78210;BME280;67485;48.816;9.930;2023-08-01T12:23:31;95697.44;;;19.70;80.21
78210;BME280;67485;48.816;9.930;2023-08-01T12:25:57;95710.94;;;19.78;81.17
78210;BME280;67485;48.816;9.930;2023-08-01T12:28:22;95691.34;;;20.44;77.67
78210;BME280;67485;48.816;9.930;2023-08-01T12:30:48;95700.59;;;20.82;75.51
78210;BME280;67485;48.816;9.930;2023-08-01T12:33:14;95697.81;;;21.15;74.03
78210;BME280;67485;48.816;9.930;2023-08-01T12:35:41;95714.09;;;21.21;73.66
78210;BME280;67485;48.816;9.930;2023-08-01T12:38:07;95710.66;;;20.79;72.82
78210;BME280;67485;48.816;9.930;2023-08-01T12:40:33;95717.94;;;20.44;72.82
78210;BME280;67485;48.816;9.930;2023-08-01T12:42:59;95714.38;;;20.34;74.07
78210;BME280;67485;48.816;9.930;2023-08-01T12:45:24;95715.94;;;20.36;73.63
78210;BME280;67485;48.816;9.930;2023-08-01T12:47:50;95708.41;;;21.05;74.18
78210;BME280;67485;48.816;9.930;2023-08-01T12:50:16;95712.09;;;21.45;70.14
78210;BME280;67485;48.816;9.930;2023-08-01T12:52:41;95710.81;;;21.49;67.56
78210;BME280;67485;48.816;9.930;2023-08-01T12:55:07;95706.06;;;21.52;67.30
78210;BME280;67485;48.816;9.930;2023-08-01T12:57:33;95702.22;;;21.76;64.73
78210;BME280;67485;48.816;9.930;2023-08-01T12:59:59;95700.78;;;21.72;66.11